sensor_id;sensor_type;location;lat;lon;timestamp;temperature;humidity
8565;DHT22;4320;51.498;6.556;2023-04-03T00:01:29;4.80;99.90
8565;DHT22;4320;51.498;6.556;2023-04-03T00:03:54;4.70;99.90
8565;DHT22;4320;51.498;6.556;2023-04-03T00:06:21;4.70;99.90
8565;DHT22;4320;51.498;6.556;2023-04-03T00:08:47;4.60;99.90
8565;DHT22;4320;51.498;6.556;2023-04-03T00:11:13;4.60;99.90
8565;DHT22;4320;51.498;6.556;2023-04-03T00:13:39;4.60;99.90
8565;DHT22;4320;51.498;6.556;2023-04-03T00:16:06;4.60;99.90
8565;DHT22;4320;51.498;6.556;2023-04-03T00:18:32;4.70;99.90
8565;DHT22;4320;51.498;6.556;2023-04-03T00:20:58;4.60;99.90
8565;DHT22;4320;51.498;6.556;2023-04-03T00:23:23;4.70;99.90
8565;DHT22;4320;51.498;6.556;2023-04-03T00:25:50;4.60;99.90
8565;DHT22;4320;51.498;6.556;2023-04-03T00:28:15;4.60;99.90
8565;DHT22;4320;51.498;6.556;2023-04-03T00:30:41;4.50;99.90
8565;DHT22;4320;51.498;6.556;2023-04-03T00:33:07;4.60;99.90
8565;DHT22;4320;51.498;6.556;2023-04-03T00:35:34;4.60;99.90
8565;DHT22;4320;51.498;6.556;2023-04-03T00:38:00;4.60;99.90
8565;DHT22;4320;51.498;6.556;2023-04-03T00:40:27;4.60;99.90
8565;DHT22;4320;51.498;6.556;2023-04-03T00:42:57;4.60;99.90
8565;DHT22;4320;51.498;6.556;2023-04-03T00:45:31;4.60;99.90
8565;DHT22;4320;51.498;6.556;2023-04-03T00:47:57;4.70;99.90
8565;DHT22;4320;51.498;6.556;2023-04-03T00:50:26;4.70;99.90
8565;DHT22;4320;51.498;6.556;2023-04-03T00:52:53;4.70;99.90
8565;DHT22;4320;51.498;6.556;2023-04-03T00:55:19;4.60;99.90
8565;DHT22;4320;51.498;6.556;2023-04-03T00:57:46;4.60;99.90
8565;DHT22;4320;51.498;6.556;2023-04-03T01:00:15;4.60;99.90
8565;DHT22;4320;51.498;6.556;2023-04-03T01:02:42;4.70;99.90
8565;DHT22;4320;51.498;6.556;2023-04-03T01:05:08;4.70;99.90
8565;DHT22;4320;51.498;6.556;2023-04-03T01:07:34;4.70;99.90
8565;DHT22;4320;51.498;6.556;2023-04-03T01:10:05;4.70;99.90
8565;DHT22;4320;51.498;6.556;2023-04-03T01:12:38;4.60;99.90
8565;DHT22;4320;51.498;6.556;2023-04-03T01:15:14;4.60;99.90
8565;DHT22;4320;51.498;6.556;2023-04-03T01:17:49;4.60;99.90
8565;DHT22;4320;51.498;6.556;2023-04-03T01:23:05;4.60;99.90
8565;DHT22;4320;51.498;6.556;2023-04-03T01:25:32;4.50;99.90
8565;DHT22;4320;51.498;6.556;2023-04-03T01:27:58;4.50;99.90
8565;DHT22;4320;51.498;6.556;2023-04-03T01:30:34;4.50;99.90
8565;DHT22;4320;51.498;6.556;2023-04-03T01:33:01;4.50;99.90
8565;DHT22;4320;51.498;6.556;2023-04-03T01:35:26;4.50;99.90
8565;DHT22;4320;51.498;6.556;2023-04-03T01:37:52;4.60;99.90
8565;DHT22;4320;51.498;6.556;2023-04-03T01:40:18;4.60;99.90
8565;DHT22;4320;51.498;6.556;2023-04-03T01:42:44;4.60;99.90
8565;DHT22;4320;51.498;6.556;2023-04-03T01:45:10;4.60;99.90
8565;DHT22;4320;51.498;6.556;2023-04-03T01:47:35;4.60;99.90
8565;DHT22;4320;51.498;6.556;2023-04-03T01:50:01;4.60;99.90
8565;DHT22;4320;51.498;6.556;2023-04-03T01:52:26;4.60;99.90
8565;DHT22;4320;51.498;6.556;2023-04-03T01:54:52;4.60;99.90
8565;DHT22;4320;51.498;6.556;2023-04-03T01:57:18;4.60;99.90
8565;DHT22;4320;51.498;6.556;2023-04-03T01:59:43;4.50;99.90
8565;DHT22;4320;51.498;6.556;2023-04-03T02:02:09;4.60;99.90
8565;DHT22;4320;51.498;6.556;2023-04-03T02:04:34;4.50;99.90
8565;DHT22;4320;51.498;6.556;2023-04-03T02:07:00;4.50;99.90
8565;DHT22;4320;51.498;6.556;2023-04-03T02:09:26;4.50;99.90
8565;DHT22;4320;51.498;6.556;2023-04-03T02:11:52;4.50;99.90
8565;DHT22;4320;51.498;6.556;2023-04-03T02:14:18;4.50;99.90
8565;DHT22;4320;51.498;6.556;2023-04-03T02:16:44;4.50;99.90
8565;DHT22;4320;51.498;6.556;2023-04-03T02:19:10;4.50;99.90
8565;DHT22;4320;51.498;6.556;2023-04-03T02:21:35;4.50;99.90
8565;DHT22;4320;51.498;6.556;2023-04-03T02:24:01;4.40;99.90
8565;DHT22;4320;51.498;6.556;2023-04-03T02:26:26;4.40;99.90
8565;DHT22;4320;51.498;6.556;2023-04-03T02:28:52;4.40;99.90
8565;DHT22;4320;51.498;6.556;2023-04-03T02:31:18;4.40;99.90
8565;DHT22;4320;51.498;6.556;2023-04-03T02:33:43;4.40;99.90
8565;DHT22;4320;51.498;6.556;2023-04-03T02:36:09;4.40;99.90
8565;DHT22;4320;51.498;6.556;2023-04-03T02:38:35;4.30;99.90
8565;DHT22;4320;51.498;6.556;2023-04-03T02:41:06;4.40;99.90
8565;DHT22;4320;51.498;6.556;2023-04-03T02:43:32;4.30;99.90
8565;DHT22;4320;51.498;6.556;2023-04-03T02:45:58;4.30;99.90
8565;DHT22;4320;51.498;6.556;2023-04-03T02:48:24;4.40;99.90
8565;DHT22;4320;51.498;6.556;2023-04-03T02:50:50;4.30;99.90
8565;DHT22;4320;51.498;6.556;2023-04-03T02:53:16;4.30;99.90
8565;DHT22;4320;51.498;6.556;2023-04-03T02:55:42;4.30;99.90
8565;DHT22;4320;51.498;6.556;2023-04-03T02:58:07;4.30;99.90
8565;DHT22;4320;51.498;6.556;2023-04-03T03:00:33;4.30;99.90
8565;DHT22;4320;51.498;6.556;2023-04-03T03:02:59;4.30;99.90
8565;DHT22;4320;51.498;6.556;2023-04-03T03:05:26;4.30;99.90
8565;DHT22;4320;51.498;6.556;2023-04-03T03:07:52;4.20;99.90
8565;DHT22;4320;51.498;6.556;2023-04-03T03:10:18;4.20;99.90
8565;DHT22;4320;51.498;6.556;2023-04-03T03:12:44;4.30;99.90
8565;DHT22;4320;51.498;6.556;2023-04-03T03:15:10;4.30;99.90
8565;DHT22;4320;51.498;6.556;2023-04-03T03:17:36;4.20;99.90
8565;DHT22;4320;51.498;6.556;2023-04-03T03:20:03;4.20;99.90
8565;DHT22;4320;51.498;6.556;2023-04-03T03:22:29;4.20;99.90
8565;DHT22;4320;51.498;6.556;2023-04-03T03:24:54;4.20;99.90
8565;DHT22;4320;51.498;6.556;2023-04-03T03:27:20;4.20;99.90
8565;DHT22;4320;51.498;6.556;2023-04-03T03:29:46;4.20;99.90
8565;DHT22;4320;51.498;6.556;2023-04-03T03:32:12;4.20;99.90
8565;DHT22;4320;51.498;6.556;2023-04-03T03:34:38;4.10;99.90
8565;DHT22;4320;51.498;6.556;2023-04-03T03:37:03;4.10;99.90
8565;DHT22;4320;51.498;6.556;2023-04-03T03:39:29;4.10;99.90
8565;DHT22;4320;51.498;6.556;2023-04-03T03:41:55;4.10;99.90
8565;DHT22;4320;51.498;6.556;2023-04-03T03:44:21;4.10;99.90
8565;DHT22;4320;51.498;6.556;2023-04-03T03:46:46;4.10;99.90
8565;DHT22;4320;51.498;6.556;2023-04-03T03:49:12;4.00;99.90
8565;DHT22;4320;51.498;6.556;2023-04-03T03:51:38;4.10;99.90
8565;DHT22;4320;51.498;6.556;2023-04-03T03:54:04;4.00;99.90
8565;DHT22;4320;51.498;6.556;2023-04-03T03:56:30;4.00;99.90
8565;DHT22;4320;51.498;6.556;2023-04-03T03:58:56;4.00;99.90
8565;DHT22;4320;51.498;6.556;2023-04-03T04:01:23;4.00;99.90
8565;DHT22;4320;51.498;6.556;2023-04-03T04:03:49;4.10;99.90
8565;DHT22;4320;51.498;6.556;2023-04-03T04:06:15;4.10;99.90
8565;DHT22;4320;51.498;6.556;2023-04-03T04:08:41;4.10;99.90
8565;DHT22;4320;51.498;6.556;2023-04-03T04:11:07;4.00;99.90
8565;DHT22;4320;51.498;6.556;2023-04-03T04:13:33;4.00;99.90
8565;DHT22;4320;51.498;6.556;2023-04-03T04:15:59;4.00;99.90
8565;DHT22;4320;51.498;6.556;2023-04-03T04:18:24;4.00;99.90
8565;DHT22;4320;51.498;6.556;2023-04-03T04:20:50;4.00;99.90
8565;DHT22;4320;51.498;6.556;2023-04-03T04:23:17;4.00;99.90
8565;DHT22;4320;51.498;6.556;2023-04-03T04:25:47;4.00;99.90
8565;DHT22;4320;51.498;6.556;2023-04-03T04:28:13;3.90;99.90
8565;DHT22;4320;51.498;6.556;2023-04-03T04:30:39;3.90;99.90
8565;DHT22;4320;51.498;6.556;2023-04-03T04:33:05;3.90;99.90
8565;DHT22;4320;51.498;6.556;2023-04-03T04:35:31;3.90;99.90
8565;DHT22;4320;51.498;6.556;2023-04-03T04:37:56;3.90;99.90
8565;DHT22;4320;51.498;6.556;2023-04-03T04:40:22;3.90;99.90
8565;DHT22;4320;51.498;6.556;2023-04-03T04:42:48;3.80;99.90
8565;DHT22;4320;51.498;6.556;2023-04-03T04:45:13;3.80;99.90
8565;DHT22;4320;51.498;6.556;2023-04-03T04:47:40;3.80;99.90
8565;DHT22;4320;51.498;6.556;2023-04-03T04:50:06;3.70;99.90
8565;DHT22;4320;51.498;6.556;2023-04-03T04:52:32;3.80;99.90
8565;DHT22;4320;51.498;6.556;2023-04-03T04:54:58;3.70;99.90
8565;DHT22;4320;51.498;6.556;2023-04-03T04:57:23;3.70;99.90
8565;DHT22;4320;51.498;6.556;2023-04-03T04:59:49;3.70;99.90
8565;DHT22;4320;51.498;6.556;2023-04-03T05:02:15;3.70;99.90
8565;DHT22;4320;51.498;6.556;2023-04-03T05:04:40;3.70;99.90
8565;DHT22;4320;51.498;6.556;2023-04-03T05:07:06;3.70;99.90
8565;DHT22;4320;51.498;6.556;2023-04-03T05:09:32;3.60;99.90
8565;DHT22;4320;51.498;6.556;2023-04-03T05:11:57;3.60;99.90
8565;DHT22;4320;51.498;6.556;2023-04-03T05:14:23;3.60;99.90
8565;DHT22;4320;51.498;6.556;2023-04-03T05:16:49;3.60;99.90
8565;DHT22;4320;51.498;6.556;2023-04-03T05:19:18;3.60;99.90
8565;DHT22;4320;51.498;6.556;2023-04-03T05:21:43;3.60;99.90
8565;DHT22;4320;51.498;6.556;2023-04-03T05:24:09;3.60;99.90
8565;DHT22;4320;51.498;6.556;2023-04-03T05:26:35;3.60;99.90
8565;DHT22;4320;51.498;6.556;2023-04-03T05:29:00;3.70;99.90
8565;DHT22;4320;51.498;6.556;2023-04-03T05:31:26;3.70;99.90
8565;DHT22;4320;51.498;6.556;2023-04-03T05:33:55;3.70;99.90
8565;DHT22;4320;51.498;6.556;2023-04-03T05:36:20;3.80;99.90
8565;DHT22;4320;51.498;6.556;2023-04-03T05:38:47;3.70;99.90
8565;DHT22;4320;51.498;6.556;2023-04-03T05:41:13;3.70;99.90
8565;DHT22;4320;51.498;6.556;2023-04-03T05:43:39;3.70;99.90
8565;DHT22;4320;51.498;6.556;2023-04-03T05:46:16;3.70;99.90
8565;DHT22;4320;51.498;6.556;2023-04-03T05:48:43;3.70;99.90
8565;DHT22;4320;51.498;6.556;2023-04-03T05:51:18;3.70;99.90
8565;DHT22;4320;51.498;6.556;2023-04-03T05:53:45;3.70;99.90
8565;DHT22;4320;51.498;6.556;2023-04-03T05:56:12;3.80;99.90
8565;DHT22;4320;51.498;6.556;2023-04-03T05:58:37;3.80;99.90
8565;DHT22;4320;51.498;6.556;2023-04-03T06:01:03;3.80;99.00
8565;DHT22;4320;51.498;6.556;2023-04-03T06:03:29;3.80;99.40
8565;DHT22;4320;51.498;6.556;2023-04-03T06:05:55;3.80;99.30
8565;DHT22;4320;51.498;6.556;2023-04-03T06:08:20;3.80;99.30
8565;DHT22;4320;51.498;6.556;2023-04-03T06:10:46;3.90;99.50
8565;DHT22;4320;51.498;6.556;2023-04-03T06:13:12;3.80;98.20
8565;DHT22;4320;51.498;6.556;2023-04-03T06:15:37;3.80;98.60
8565;DHT22;4320;51.498;6.556;2023-04-03T06:18:05;3.90;98.60
8565;DHT22;4320;51.498;6.556;2023-04-03T06:20:30;3.90;98.40
8565;DHT22;4320;51.498;6.556;2023-04-03T06:22:56;3.90;98.00
8565;DHT22;4320;51.498;6.556;2023-04-03T06:25:22;3.90;98.10
8565;DHT22;4320;51.498;6.556;2023-04-03T06:27:48;3.90;97.60
8565;DHT22;4320;51.498;6.556;2023-04-03T06:30:14;3.90;97.90
8565;DHT22;4320;51.498;6.556;2023-04-03T06:32:39;4.00;96.90
8565;DHT22;4320;51.498;6.556;2023-04-03T06:35:06;4.00;95.90
8565;DHT22;4320;51.498;6.556;2023-04-03T06:37:31;4.00;96.20
8565;DHT22;4320;51.498;6.556;2023-04-03T06:39:57;4.10;95.10
8565;DHT22;4320;51.498;6.556;2023-04-03T06:42:24;4.00;94.30
8565;DHT22;4320;51.498;6.556;2023-04-03T06:44:50;4.10;95.00
8565;DHT22;4320;51.498;6.556;2023-04-03T06:47:16;4.30;94.80
8565;DHT22;4320;51.498;6.556;2023-04-03T06:49:42;4.40;94.70
8565;DHT22;4320;51.498;6.556;2023-04-03T06:52:09;4.60;94.80
8565;DHT22;4320;51.498;6.556;2023-04-03T06:54:35;4.90;93.00
8565;DHT22;4320;51.498;6.556;2023-04-03T06:57:01;5.30;91.00
8565;DHT22;4320;51.498;6.556;2023-04-03T06:59:27;5.80;85.00
8565;DHT22;4320;51.498;6.556;2023-04-03T07:01:52;6.50;78.00
8565;DHT22;4320;51.498;6.556;2023-04-03T07:04:18;7.30;67.80
8565;DHT22;4320;51.498;6.556;2023-04-03T07:06:45;8.10;54.00
8565;DHT22;4320;51.498;6.556;2023-04-03T07:09:12;8.90;42.50
8565;DHT22;4320;51.498;6.556;2023-04-03T07:11:38;9.80;29.30
8565;DHT22;4320;51.498;6.556;2023-04-03T07:14:04;10.80;18.70
8565;DHT22;4320;51.498;6.556;2023-04-03T07:16:31;11.30;2.50
8565;DHT22;4320;51.498;6.556;2023-04-03T07:18:57;11.70;1.00
8565;DHT22;4320;51.498;6.556;2023-04-03T07:21:23;11.40;1.00
8565;DHT22;4320;51.498;6.556;2023-04-03T07:23:49;12.10;1.00
8565;DHT22;4320;51.498;6.556;2023-04-03T07:26:15;12.70;1.00
8565;DHT22;4320;51.498;6.556;2023-04-03T07:28:41;13.10;1.00
8565;DHT22;4320;51.498;6.556;2023-04-03T07:31:08;13.70;1.00
8565;DHT22;4320;51.498;6.556;2023-04-03T07:33:36;13.60;1.00
8565;DHT22;4320;51.498;6.556;2023-04-03T07:36:02;13.90;1.00
8565;DHT22;4320;51.498;6.556;2023-04-03T07:38:28;14.30;1.00
8565;DHT22;4320;51.498;6.556;2023-04-03T07:40:54;14.70;1.00
8565;DHT22;4320;51.498;6.556;2023-04-03T07:43:21;15.00;1.00
8565;DHT22;4320;51.498;6.556;2023-04-03T07:45:48;14.70;1.00
8565;DHT22;4320;51.498;6.556;2023-04-03T07:48:22;14.50;1.00
8565;DHT22;4320;51.498;6.556;2023-04-03T07:50:48;14.30;1.00
8565;DHT22;4320;51.498;6.556;2023-04-03T07:53:14;14.00;1.00
8565;DHT22;4320;51.498;6.556;2023-04-03T07:55:40;13.80;1.00
8565;DHT22;4320;51.498;6.556;2023-04-03T07:58:15;13.80;1.00
8565;DHT22;4320;51.498;6.556;2023-04-03T08:00:41;14.00;1.00
8565;DHT22;4320;51.498;6.556;2023-04-03T08:03:09;14.70;1.00
8565;DHT22;4320;51.498;6.556;2023-04-03T08:05:40;15.60;1.00
8565;DHT22;4320;51.498;6.556;2023-04-03T08:08:07;15.80;1.00
8565;DHT22;4320;51.498;6.556;2023-04-03T08:10:33;16.30;1.00
8565;DHT22;4320;51.498;6.556;2023-04-03T08:13:00;16.90;1.00
8565;DHT22;4320;51.498;6.556;2023-04-03T08:15:26;17.10;1.00
8565;DHT22;4320;51.498;6.556;2023-04-03T08:17:52;17.40;1.00
8565;DHT22;4320;51.498;6.556;2023-04-03T08:20:18;17.40;1.00
8565;DHT22;4320;51.498;6.556;2023-04-03T08:22:47;16.80;1.00
8565;DHT22;4320;51.498;6.556;2023-04-03T08:25:13;16.40;1.00
8565;DHT22;4320;51.498;6.556;2023-04-03T08:27:38;16.30;1.00
8565;DHT22;4320;51.498;6.556;2023-04-03T08:30:05;16.30;1.00
8565;DHT22;4320;51.498;6.556;2023-04-03T08:32:32;16.10;1.00
8565;DHT22;4320;51.498;6.556;2023-04-03T08:34:58;15.30;1.00
8565;DHT22;4320;51.498;6.556;2023-04-03T08:37:24;15.00;1.00
8565;DHT22;4320;51.498;6.556;2023-04-03T08:39:49;14.20;1.00
8565;DHT22;4320;51.498;6.556;2023-04-03T08:47:59;12.40;1.00
8565;DHT22;4320;51.498;6.556;2023-04-03T08:50:34;12.20;1.00
8565;DHT22;4320;51.498;6.556;2023-04-03T08:53:02;11.80;1.00
8565;DHT22;4320;51.498;6.556;2023-04-03T08:55:37;11.40;1.00
8565;DHT22;4320;51.498;6.556;2023-04-03T08:58:15;11.50;1.00
8565;DHT22;4320;51.498;6.556;2023-04-03T09:03:21;12.00;1.00
8565;DHT22;4320;51.498;6.556;2023-04-03T09:05:57;11.80;1.00
8565;DHT22;4320;51.498;6.556;2023-04-03T09:08:30;11.70;1.00
8565;DHT22;4320;51.498;6.556;2023-04-03T09:13:55;12.40;1.00
8565;DHT22;4320;51.498;6.556;2023-04-03T09:16:28;12.40;1.00
8565;DHT22;4320;51.498;6.556;2023-04-03T09:19:49;12.10;1.00
8565;DHT22;4320;51.498;6.556;2023-04-03T09:21:48;11.40;1.00
8565;DHT22;4320;51.498;6.556;2023-04-03T09:24:15;11.50;1.00
8565;DHT22;4320;51.498;6.556;2023-04-03T09:27:21;11.70;1.00
8565;DHT22;4320;51.498;6.556;2023-04-03T09:29:41;12.30;1.00
8565;DHT22;4320;51.498;6.556;2023-04-03T09:32:33;12.80;1.00
8565;DHT22;4320;51.498;6.556;2023-04-03T09:35:03;13.00;1.00
8565;DHT22;4320;51.498;6.556;2023-04-03T09:37:41;13.30;1.00
8565;DHT22;4320;51.498;6.556;2023-04-03T09:42:58;12.50;1.00
8565;DHT22;4320;51.498;6.556;2023-04-03T09:45:33;12.10;1.00
8565;DHT22;4320;51.498;6.556;2023-04-03T09:48:16;11.90;1.00
8565;DHT22;4320;51.498;6.556;2023-04-03T09:50:54;11.90;1.00
8565;DHT22;4320;51.498;6.556;2023-04-03T09:53:41;12.10;1.00
8565;DHT22;4320;51.498;6.556;2023-04-03T09:58:40;13.20;1.00
8565;DHT22;4320;51.498;6.556;2023-04-03T10:06:39;12.70;1.00
8565;DHT22;4320;51.498;6.556;2023-04-03T10:09:22;12.60;1.00
8565;DHT22;4320;51.498;6.556;2023-04-03T10:12:08;12.70;1.00
8565;DHT22;4320;51.498;6.556;2023-04-03T10:15:00;12.20;1.00
8565;DHT22;4320;51.498;6.556;2023-04-03T10:17:37;12.00;1.00
8565;DHT22;4320;51.498;6.556;2023-04-03T10:27:52;11.90;1.00
8565;DHT22;4320;51.498;6.556;2023-04-03T10:33:39;11.30;1.00
8565;DHT22;4320;51.498;6.556;2023-04-03T10:44:36;10.90;1.00
8565;DHT22;4320;51.498;6.556;2023-04-03T10:47:16;10.70;1.00
8565;DHT22;4320;51.498;6.556;2023-04-03T10:57:57;10.80;1.00
8565;DHT22;4320;51.498;6.556;2023-04-03T11:00:43;10.60;1.00
8565;DHT22;4320;51.498;6.556;2023-04-03T11:03:35;10.60;1.00
8565;DHT22;4320;51.498;6.556;2023-04-03T11:06:05;10.70;1.00
8565;DHT22;4320;51.498;6.556;2023-04-03T11:08:46;10.90;1.00
8565;DHT22;4320;51.498;6.556;2023-04-03T11:11:20;11.10;1.00
8565;DHT22;4320;51.498;6.556;2023-04-03T11:13:55;11.20;1.00
8565;DHT22;4320;51.498;6.556;2023-04-03T11:16:26;11.10;1.00
8565;DHT22;4320;51.498;6.556;2023-04-03T11:18:56;11.60;1.00
8565;DHT22;4320;51.498;6.556;2023-04-03T11:21:32;11.60;1.00
8565;DHT22;4320;51.498;6.556;2023-04-03T11:24:03;11.50;1.00
8565;DHT22;4320;51.498;6.556;2023-04-03T11:26:37;11.30;1.00
8565;DHT22;4320;51.498;6.556;2023-04-03T11:29:12;11.30;1.00
8565;DHT22;4320;51.498;6.556;2023-04-03T11:34:44;10.80;1.00
8565;DHT22;4320;51.498;6.556;2023-04-03T11:37:35;11.00;1.00
8565;DHT22;4320;51.498;6.556;2023-04-03T11:40:04;11.00;1.00
8565;DHT22;4320;51.498;6.556;2023-04-03T11:42:37;11.40;1.00
8565;DHT22;4320;51.498;6.556;2023-04-03T11:45:29;11.70;1.00
8565;DHT22;4320;51.498;6.556;2023-04-03T11:50:47;11.30;1.00
8565;DHT22;4320;51.498;6.556;2023-04-03T11:58:16;11.20;1.00
8565;DHT22;4320;51.498;6.556;2023-04-03T12:05:50;11.20;1.00
8565;DHT22;4320;51.498;6.556;2023-04-03T12:08:28;11.40;1.00
8565;DHT22;4320;51.498;6.556;2023-04-03T12:24:52;12.70;1.00
8565;DHT22;4320;51.498;6.556;2023-04-03T12:27:34;12.90;1.00
8565;DHT22;4320;51.498;6.556;2023-04-03T12:35:36;12.40;1.00
8565;DHT22;4320;51.498;6.556;2023-04-03T12:38:15;12.90;1.00
8565;DHT22;4320;51.498;6.556;2023-04-03T12:46:43;13.50;1.00
8565;DHT22;4320;51.498;6.556;2023-04-03T12:51:45;13.80;1.00
8565;DHT22;4320;51.498;6.556;2023-04-03T12:54:30;13.80;1.00
8565;DHT22;4320;51.498;6.556;2023-04-03T12:57:20;13.90;1.00
8565;DHT22;4320;51.498;6.556;2023-04-03T12:59:46;13.90;1.00
8565;DHT22;4320;51.498;6.556;2023-04-03T13:02:29;13.10;1.00
8565;DHT22;4320;51.498;6.556;2023-04-03T13:05:05;13.30;1.00
8565;DHT22;4320;51.498;6.556;2023-04-03T13:07:36;12.80;1.00
8565;DHT22;4320;51.498;6.556;2023-04-03T13:10:15;13.00;1.00
8565;DHT22;4320;51.498;6.556;2023-04-03T13:12:53;12.60;1.00
8565;DHT22;4320;51.498;6.556;2023-04-03T13:15:25;12.60;1.00
8565;DHT22;4320;51.498;6.556;2023-04-03T13:17:52;12.90;1.00
8565;DHT22;4320;51.498;6.556;2023-04-03T13:25:23;13.40;1.00
8565;DHT22;4320;51.498;6.556;2023-04-03T13:27:49;12.90;1.00
8565;DHT22;4320;51.498;6.556;2023-04-03T13:30:36;12.80;1.00
8565;DHT22;4320;51.498;6.556;2023-04-03T13:33:19;12.90;1.00
8565;DHT22;4320;51.498;6.556;2023-04-03T13:35:46;12.60;1.00
8565;DHT22;4320;51.498;6.556;2023-04-03T13:40:57;12.50;1.00
8565;DHT22;4320;51.498;6.556;2023-04-03T13:43:26;12.50;1.00
8565;DHT22;4320;51.498;6.556;2023-04-03T13:48:43;12.60;1.00
8565;DHT22;4320;51.498;6.556;2023-04-03T13:51:17;12.40;1.00
8565;DHT22;4320;51.498;6.556;2023-04-03T13:56:42;12.00;1.00
8565;DHT22;4320;51.498;6.556;2023-04-03T14:04:31;11.80;1.00
8565;DHT22;4320;51.498;6.556;2023-04-03T14:06:57;11.80;1.00
8565;DHT22;4320;51.498;6.556;2023-04-03T14:09:24;11.70;1.00
8565;DHT22;4320;51.498;6.556;2023-04-03T14:11:54;11.80;1.00
8565;DHT22;4320;51.498;6.556;2023-04-03T14:14:23;11.90;1.00
8565;DHT22;4320;51.498;6.556;2023-04-03T14:16:58;11.60;1.00
8565;DHT22;4320;51.498;6.556;2023-04-03T14:19:31;11.60;1.00
8565;DHT22;4320;51.498;6.556;2023-04-03T14:21:59;11.50;1.00
8565;DHT22;4320;51.498;6.556;2023-04-03T14:24:25;11.10;1.00
8565;DHT22;4320;51.498;6.556;2023-04-03T14:26:52;11.30;1.00
8565;DHT22;4320;51.498;6.556;2023-04-03T14:29:20;11.20;1.00
8565;DHT22;4320;51.498;6.556;2023-04-03T14:31:46;10.90;1.00
8565;DHT22;4320;51.498;6.556;2023-04-03T14:34:14;10.90;1.00
8565;DHT22;4320;51.498;6.556;2023-04-03T14:36:41;10.80;1.00
8565;DHT22;4320;51.498;6.556;2023-04-03T14:39:11;10.80;1.00
8565;DHT22;4320;51.498;6.556;2023-04-03T14:41:42;10.80;1.00
8565;DHT22;4320;51.498;6.556;2023-04-03T14:44:08;11.00;1.00
8565;DHT22;4320;51.498;6.556;2023-04-03T14:46:39;11.00;1.00
8565;DHT22;4320;51.498;6.556;2023-04-03T14:49:17;10.90;1.00
8565;DHT22;4320;51.498;6.556;2023-04-03T14:51:43;10.80;1.00
8565;DHT22;4320;51.498;6.556;2023-04-03T14:54:20;10.80;1.00
8565;DHT22;4320;51.498;6.556;2023-04-03T14:56:51;10.70;1.00
8565;DHT22;4320;51.498;6.556;2023-04-03T14:59:16;10.60;1.00
8565;DHT22;4320;51.498;6.556;2023-04-03T15:01:45;10.60;1.00
8565;DHT22;4320;51.498;6.556;2023-04-03T15:04:15;10.50;1.00
8565;DHT22;4320;51.498;6.556;2023-04-03T15:06:43;10.60;1.00
8565;DHT22;4320;51.498;6.556;2023-04-03T15:09:23;10.60;1.00
8565;DHT22;4320;51.498;6.556;2023-04-03T15:11:51;10.70;1.00
8565;DHT22;4320;51.498;6.556;2023-04-03T15:14:17;10.70;1.00
8565;DHT22;4320;51.498;6.556;2023-04-03T15:16:43;10.60;1.00
8565;DHT22;4320;51.498;6.556;2023-04-03T15:19:10;10.40;1.00
8565;DHT22;4320;51.498;6.556;2023-04-03T15:21:36;10.30;1.00
8565;DHT22;4320;51.498;6.556;2023-04-03T15:24:02;10.20;1.00
8565;DHT22;4320;51.498;6.556;2023-04-03T15:26:28;10.20;1.00
8565;DHT22;4320;51.498;6.556;2023-04-03T15:28:54;10.30;1.00
8565;DHT22;4320;51.498;6.556;2023-04-03T15:31:20;10.30;1.00
8565;DHT22;4320;51.498;6.556;2023-04-03T15:33:45;10.10;1.00
8565;DHT22;4320;51.498;6.556;2023-04-03T15:36:11;10.10;1.00
8565;DHT22;4320;51.498;6.556;2023-04-03T15:38:37;10.20;1.00
8565;DHT22;4320;51.498;6.556;2023-04-03T15:41:04;10.20;1.00
8565;DHT22;4320;51.498;6.556;2023-04-03T15:43:30;10.20;1.00
8565;DHT22;4320;51.498;6.556;2023-04-03T15:45:57;10.20;1.00
8565;DHT22;4320;51.498;6.556;2023-04-03T15:48:24;10.20;1.00
8565;DHT22;4320;51.498;6.556;2023-04-03T15:50:49;10.10;1.00
8565;DHT22;4320;51.498;6.556;2023-04-03T15:53:15;10.20;1.00
8565;DHT22;4320;51.498;6.556;2023-04-03T15:55:42;10.10;1.00
8565;DHT22;4320;51.498;6.556;2023-04-03T15:58:08;10.00;1.00
8565;DHT22;4320;51.498;6.556;2023-04-03T16:00:35;10.10;1.00
8565;DHT22;4320;51.498;6.556;2023-04-03T16:03:05;10.10;1.00
8565;DHT22;4320;51.498;6.556;2023-04-03T16:05:31;10.10;1.00
8565;DHT22;4320;51.498;6.556;2023-04-03T16:07:59;10.10;1.00
8565;DHT22;4320;51.498;6.556;2023-04-03T16:10:25;10.10;1.00
8565;DHT22;4320;51.498;6.556;2023-04-03T16:12:51;10.10;1.00
8565;DHT22;4320;51.498;6.556;2023-04-03T16:15:17;10.10;1.00
8565;DHT22;4320;51.498;6.556;2023-04-03T16:17:43;10.10;1.00
8565;DHT22;4320;51.498;6.556;2023-04-03T16:20:11;10.10;1.00
8565;DHT22;4320;51.498;6.556;2023-04-03T16:22:37;10.10;1.00
8565;DHT22;4320;51.498;6.556;2023-04-03T16:25:05;10.10;1.00
8565;DHT22;4320;51.498;6.556;2023-04-03T16:27:31;10.10;1.00
8565;DHT22;4320;51.498;6.556;2023-04-03T16:29:57;10.00;1.00
8565;DHT22;4320;51.498;6.556;2023-04-03T16:32:27;9.90;1.00
8565;DHT22;4320;51.498;6.556;2023-04-03T16:34:54;9.90;1.00
8565;DHT22;4320;51.498;6.556;2023-04-03T16:37:20;9.80;1.00
8565;DHT22;4320;51.498;6.556;2023-04-03T16:39:45;9.80;1.00
8565;DHT22;4320;51.498;6.556;2023-04-03T16:42:11;9.70;1.00
8565;DHT22;4320;51.498;6.556;2023-04-03T16:44:37;9.70;1.00
8565;DHT22;4320;51.498;6.556;2023-04-03T16:47:03;9.80;1.00
8565;DHT22;4320;51.498;6.556;2023-04-03T16:49:29;9.70;1.00
8565;DHT22;4320;51.498;6.556;2023-04-03T16:52:02;9.60;1.00
8565;DHT22;4320;51.498;6.556;2023-04-03T16:54:28;9.60;1.00
8565;DHT22;4320;51.498;6.556;2023-04-03T16:56:54;9.50;1.00
8565;DHT22;4320;51.498;6.556;2023-04-03T16:59:19;9.50;1.00
8565;DHT22;4320;51.498;6.556;2023-04-03T17:01:45;9.40;1.00
8565;DHT22;4320;51.498;6.556;2023-04-03T17:04:11;9.40;1.00
8565;DHT22;4320;51.498;6.556;2023-04-03T17:06:38;9.40;1.00
8565;DHT22;4320;51.498;6.556;2023-04-03T17:09:04;9.40;1.00
8565;DHT22;4320;51.498;6.556;2023-04-03T17:11:30;9.40;1.00
8565;DHT22;4320;51.498;6.556;2023-04-03T17:13:56;9.30;1.00
8565;DHT22;4320;51.498;6.556;2023-04-03T17:16:22;9.20;1.00
8565;DHT22;4320;51.498;6.556;2023-04-03T17:18:48;9.20;1.00
8565;DHT22;4320;51.498;6.556;2023-04-03T17:21:15;9.10;1.00
8565;DHT22;4320;51.498;6.556;2023-04-03T17:23:43;9.00;1.00
8565;DHT22;4320;51.498;6.556;2023-04-03T17:26:09;9.00;1.00
8565;DHT22;4320;51.498;6.556;2023-04-03T17:28:35;9.00;1.00
8565;DHT22;4320;51.498;6.556;2023-04-03T17:31:02;9.10;1.00
8565;DHT22;4320;51.498;6.556;2023-04-03T17:33:28;9.10;1.00
8565;DHT22;4320;51.498;6.556;2023-04-03T17:35:58;9.10;1.00
8565;DHT22;4320;51.498;6.556;2023-04-03T17:38:26;9.00;1.00
8565;DHT22;4320;51.498;6.556;2023-04-03T17:40:54;8.90;1.00
8565;DHT22;4320;51.498;6.556;2023-04-03T17:43:20;8.90;1.00
8565;DHT22;4320;51.498;6.556;2023-04-03T17:45:46;8.80;1.00
8565;DHT22;4320;51.498;6.556;2023-04-03T17:48:11;8.70;1.00
8565;DHT22;4320;51.498;6.556;2023-04-03T17:50:37;8.70;1.00
8565;DHT22;4320;51.498;6.556;2023-04-03T17:53:02;8.70;1.00
8565;DHT22;4320;51.498;6.556;2023-04-03T17:55:28;8.60;1.00
8565;DHT22;4320;51.498;6.556;2023-04-03T17:57:54;8.50;1.00
8565;DHT22;4320;51.498;6.556;2023-04-03T18:00:20;8.50;1.00
8565;DHT22;4320;51.498;6.556;2023-04-03T18:02:45;8.50;1.00
8565;DHT22;4320;51.498;6.556;2023-04-03T18:05:11;8.50;1.00
8565;DHT22;4320;51.498;6.556;2023-04-03T18:07:37;8.50;1.00
8565;DHT22;4320;51.498;6.556;2023-04-03T18:10:05;8.40;1.00
8565;DHT22;4320;51.498;6.556;2023-04-03T18:12:33;8.40;1.00
8565;DHT22;4320;51.498;6.556;2023-04-03T18:14:59;8.40;1.00
8565;DHT22;4320;51.498;6.556;2023-04-03T18:17:25;8.30;1.00
8565;DHT22;4320;51.498;6.556;2023-04-03T18:19:53;8.20;1.00
8565;DHT22;4320;51.498;6.556;2023-04-03T18:22:22;8.30;1.00